Time;durP1;ratioP1;P1;durP2;ratioP2;P2;SDS_P1;SDS_P2;PMS_P1;PMS_P2;Temp;Humidity;BMP_temperature;BMP_pressure;BME280_temperature;BME280_humidity;BME280_pressure;Samples;Min_cycle;Max_cycle;Signal;HPM_P1;HPM_P2
2024/01/10 00:01:37;;;;;;;19.00;7.03;;;-6.20;99.90;;;;;;5036960;28;20203;-77
2024/01/10 00:04:04;;;;;;;22.30;9.13;;;-6.20;99.90;;;;;;5034821;28;20232;-78
2024/01/10 00:06:31;;;;;;;17.30;7.20;;;-6.30;99.90;;;;;;5037871;28;20199;-77
2024/01/10 00:08:59;;;;;;;20.27;8.07;;;-6.30;99.90;;;;;;5033265;28;20202;-77
2024/01/10 00:11:26;;;;;;;22.17;8.33;;;-6.30;1.00;;;;;;5033871;28;20732;-77
2024/01/10 00:13:59;;;;;;;20.33;7.77;;;-6.40;1.00;;;;;;5026096;28;20243;-78
2024/01/10 00:16:26;;;;;;;24.37;9.23;;;-6.40;1.00;;;;;;5040928;28;20610;-76
2024/01/10 00:18:53;;;;;;;21.67;8.37;;;-6.40;1.00;;;;;;5037195;28;20576;-77
2024/01/10 00:21:19;;;;;;;16.47;7.87;;;-6.50;1.00;;;;;;5033655;28;20202;-77
2024/01/10 00:23:46;;;;;;;19.80;7.97;;;-6.40;1.00;;;;;;5037578;28;20223;-77
2024/01/10 00:26:15;;;;;;;19.80;8.37;;;-6.50;1.00;;;;;;5036398;28;20573;-77
2024/01/10 00:28:41;;;;;;;25.23;9.80;;;-6.40;1.00;;;;;;5030770;28;20250;-77
2024/01/10 00:31:08;;;;;;;22.20;9.40;;;-6.50;1.00;;;;;;5036614;28;20227;-77
2024/01/10 00:33:35;;;;;;;22.80;10.07;;;-6.50;1.00;;;;;;5033928;28;20219;-77
2024/01/10 00:36:02;;;;;;;24.53;9.10;;;-6.60;1.00;;;;;;5036663;28;20195;-77
2024/01/10 00:38:29;;;;;;;21.93;9.27;;;-6.50;1.00;;;;;;5032851;28;20207;-78
2024/01/10 00:40:56;;;;;;;19.93;9.20;;;-6.50;1.00;;;;;;5034078;28;20210;-77
2024/01/10 00:43:24;;;;;;;24.00;10.43;;;-6.60;11.80;;;;;;5033325;28;20589;-77
2024/01/10 00:45:51;;;;;;;22.00;9.47;;;-6.60;77.10;;;;;;5034585;28;20688;-78
2024/01/10 00:48:18;;;;;;;22.60;10.10;;;-6.60;1.00;;;;;;5035279;28;20209;-77
2024/01/10 00:50:45;;;;;;;20.50;8.40;;;-6.50;1.00;;;;;;5032317;28;20219;-77
2024/01/10 00:53:12;;;;;;;20.20;8.83;;;-6.40;1.00;;;;;;5033106;28;20247;-77
2024/01/10 00:55:38;;;;;;;23.77;10.40;;;-6.50;1.00;;;;;;5033365;28;20196;-78
2024/01/10 00:58:05;;;;;;;26.07;8.90;;;-6.60;1.00;;;;;;5032649;28;20202;-77
2024/01/10 01:00:34;;;;;;;27.90;12.07;;;-6.60;1.00;;;;;;5031923;28;20191;-77
2024/01/10 01:03:00;;;;;;;24.07;9.93;;;-6.40;1.00;;;;;;5038577;28;20207;-77
2024/01/10 01:05:27;;;;;;;24.60;10.60;;;-6.40;1.00;;;;;;5029026;28;20211;-76
2024/01/10 01:07:54;;;;;;;24.83;10.53;;;-6.60;1.00;;;;;;5035665;28;20200;-77
2024/01/10 01:10:21;;;;;;;23.23;10.07;;;-6.60;1.00;;;;;;5033509;28;20226;-77
2024/01/10 01:12:48;;;;;;;23.57;10.30;;;-6.50;1.00;;;;;;5029845;28;20231;-77
2024/01/10 01:15:14;;;;;;;23.13;9.70;;;-6.50;1.00;;;;;;5036269;28;20834;-77
2024/01/10 01:17:43;;;;;;;28.43;10.60;;;-6.60;1.00;;;;;;5028900;28;20223;-78
2024/01/10 01:20:10;;;;;;;25.67;10.63;;;-6.50;1.00;;;;;;5034802;28;20203;-77
2024/01/10 01:22:37;;;;;;;24.87;9.37;;;-6.50;99.90;;;;;;5035873;28;20196;-78
2024/01/10 01:25:04;;;;;;;23.10;10.67;;;-6.40;99.90;;;;;;5035427;28;20219;-78
2024/01/10 01:27:31;;;;;;;25.63;10.43;;;-6.40;99.90;;;;;;5028349;28;20203;-78
2024/01/10 01:29:58;;;;;;;22.43;9.10;;;-6.40;99.90;;;;;;5033773;28;20228;-77
2024/01/10 01:32:24;;;;;;;26.53;10.93;;;-6.40;99.90;;;;;;5035059;28;20200;-77
2024/01/10 01:34:53;;;;;;;25.67;10.40;;;-6.40;99.90;;;;;;5034379;28;20309;-77
2024/01/10 01:37:19;;;;;;;24.20;11.33;;;-6.40;99.90;;;;;;5035576;28;20702;-77
2024/01/10 01:39:46;;;;;;;22.93;10.37;;;-6.50;99.90;;;;;;5035804;28;20607;-77
2024/01/10 01:42:13;;;;;;;24.80;11.63;;;-6.50;99.90;;;;;;5034336;28;20561;-77
2024/01/10 01:44:40;;;;;;;24.80;11.30;;;-6.50;1.00;;;;;;5034134;28;20219;-77
2024/01/10 01:47:07;;;;;;;28.53;11.00;;;-6.60;1.00;;;;;;5031848;28;20204;-78
2024/01/10 01:49:34;;;;;;;27.43;11.47;;;-6.70;1.00;;;;;;5031491;28;20207;-76
2024/01/10 01:52:02;;;;;;;27.70;10.20;;;-6.70;1.00;;;;;;5036701;28;20203;-77
2024/01/10 01:54:31;;;;;;;27.63;11.30;;;-6.60;1.00;;;;;;5037686;28;20223;-77
2024/01/10 01:56:58;;;;;;;25.93;9.80;;;-6.60;1.00;;;;;;5033935;28;20213;-77
2024/01/10 01:59:25;;;;;;;24.20;10.17;;;-6.70;1.00;;;;;;5031978;28;20199;-77
2024/01/10 02:01:55;;;;;;;26.07;11.60;;;-6.70;1.00;;;;;;5030269;28;20210;-77
2024/01/10 02:04:23;;;;;;;26.50;10.97;;;-6.70;1.00;;;;;;5031500;28;20231;-77
2024/01/10 02:06:49;;;;;;;24.73;10.77;;;-6.90;1.00;;;;;;5031296;28;20222;-77
2024/01/10 02:09:18;;;;;;;26.47;11.67;;;-7.00;1.00;;;;;;5034369;28;20218;-77
2024/01/10 02:11:45;;;;;;;26.60;11.23;;;-7.00;99.90;;;;;;5030985;28;20219;-78
2024/01/10 02:14:12;;;;;;;25.90;11.93;;;-7.00;99.90;;;;;;5029330;28;20215;-77
2024/01/10 02:16:39;;;;;;;27.33;10.87;;;-7.00;99.90;;;;;;5024287;28;20215;-78
2024/01/10 02:19:19;;;;;;;29.30;10.67;;;-7.10;99.90;;;;;;5033313;28;20196;-77
2024/01/10 02:21:46;;;;;;;28.57;11.40;;;-7.00;1.00;;;;;;5037802;28;20249;-77
2024/01/10 02:24:12;;;;;;;28.93;11.00;;;-7.00;1.00;;;;;;5026585;28;20223;-78
2024/01/10 02:26:41;;;;;;;25.07;11.13;;;-7.10;1.00;;;;;;5027234;28;20593;-77
2024/01/10 02:29:08;;;;;;;24.80;10.60;;;-7.00;1.00;;;;;;5037035;28;20207;-77
2024/01/10 02:31:34;;;;;;;22.83;10.33;;;-7.00;1.00;;;;;;5032126;28;20580;-77
2024/01/10 02:34:01;;;;;;;28.23;10.03;;;-7.20;1.00;;;;;;5034708;28;20596;-77
2024/01/10 02:36:28;;;;;;;25.63;10.27;;;-7.40;1.00;;;;;;5028519;28;20668;-77
2024/01/10 02:38:55;;;;;;;25.77;9.93;;;-7.10;92.40;;;;;;5031119;28;20734;-76
2024/01/10 02:41:21;;;;;;;22.80;9.90;;;-7.00;1.00;;;;;;5033911;28;20196;-77
2024/01/10 02:43:49;;;;;;;21.53;9.37;;;-6.90;1.00;;;;;;5031936;28;20685;-77
2024/01/10 02:46:16;;;;;;;23.40;9.30;;;-7.10;1.00;;;;;;5039175;28;20685;-77
2024/01/10 02:48:43;;;;;;;25.43;10.20;;;-7.20;1.00;;;;;;5031598;28;20207;-77
2024/01/10 02:51:10;;;;;;;24.80;9.07;;;-7.10;36.00;;;;;;5038430;28;20222;-76
2024/01/10 02:53:36;;;;;;;21.93;9.47;;;-7.00;99.90;;;;;;5030233;28;20215;-76
2024/01/10 02:56:03;;;;;;;20.70;8.70;;;-6.90;99.90;;;;;;5035994;28;20207;-77
2024/01/10 02:58:30;;;;;;;20.17;8.30;;;-6.80;1.00;;;;;;5031785;28;20204;-76
2024/01/10 03:00:58;;;;;;;20.30;8.87;;;-6.90;1.00;;;;;;5029036;28;20651;-77
2024/01/10 03:03:25;;;;;;;18.83;8.10;;;-6.80;1.00;;;;;;5031544;28;20666;-77
2024/01/10 03:05:52;;;;;;;17.03;7.77;;;-6.80;1.00;;;;;;5029920;28;20200;-77
2024/01/10 03:08:19;;;;;;;21.87;7.97;;;-6.80;1.00;;;;;;5032043;28;20676;-78
2024/01/10 03:10:46;;;;;;;21.30;8.13;;;-6.80;1.00;;;;;;5032323;28;20230;-78
2024/01/10 03:13:13;;;;;;;18.30;7.57;;;-6.80;99.90;;;;;;5034298;28;20219;-78
2024/01/10 03:15:39;;;;;;;24.37;10.80;;;-6.80;99.90;;;;;;5036439;28;20217;-78
2024/01/10 03:18:08;;;;;;;26.50;11.47;;;-6.80;99.90;;;;;;5037743;28;20655;-77
2024/01/10 03:20:34;;;;;;;22.77;8.87;;;-6.90;99.90;;;;;;5034515;28;20196;-78
2024/01/10 03:23:01;;;;;;;22.17;9.93;;;-6.90;99.90;;;;;;5043803;28;20294;-77
2024/01/10 03:25:28;;;;;;;20.73;9.10;;;-6.90;1.00;;;;;;5041028;28;20294;-77
2024/01/10 03:27:54;;;;;;;22.80;8.30;;;-7.00;1.00;;;;;;5040323;28;20213;-78
2024/01/10 03:30:24;;;;;;;25.07;9.77;;;-7.00;1.00;;;;;;5035181;28;20314;-78
2024/01/10 03:32:50;;;;;;;24.90;10.20;;;-7.10;1.00;;;;;;5035093;28;20200;-78
2024/01/10 03:35:19;;;;;;;19.83;8.00;;;-7.10;1.00;;;;;;5037099;28;20227;-77
2024/01/10 03:37:45;;;;;;;25.17;11.27;;;-7.10;1.00;;;;;;5046942;28;20597;-77
2024/01/10 03:40:12;;;;;;;21.70;9.23;;;-7.20;1.00;;;;;;5036029;28;20200;-77
2024/01/10 03:42:39;;;;;;;20.17;8.13;;;-7.10;1.00;;;;;;5032833;28;20200;-78
2024/01/10 03:45:07;;;;;;;24.70;9.97;;;-7.10;1.00;;;;;;5043473;28;20231;-79
2024/01/10 03:47:33;;;;;;;21.80;10.10;;;-7.10;1.00;;;;;;5041428;28;20206;-77
2024/01/10 03:50:00;;;;;;;20.67;9.40;;;-7.10;1.00;;;;;;5033285;28;20202;-78
2024/01/10 03:52:28;;;;;;;24.80;9.67;;;-7.10;1.00;;;;;;5035327;28;20192;-78
2024/01/10 03:54:55;;;;;;;25.93;11.43;;;-7.10;1.00;;;;;;5034816;28;20223;-78
2024/01/10 03:57:22;;;;;;;27.07;10.80;;;-7.10;1.00;;;;;;5034277;28;20699;-78
2024/01/10 03:59:49;;;;;;;25.17;9.70;;;-7.30;1.00;;;;;;5033657;28;20200;-77
2024/01/10 04:02:16;;;;;;;27.83;10.10;;;-7.20;1.00;;;;;;5036795;28;20282;-77
2024/01/10 04:04:42;;;;;;;30.80;11.33;;;-7.20;18.90;;;;;;5038106;28;20223;-77
2024/01/10 04:07:09;;;;;;;23.63;11.00;;;-7.40;1.00;;;;;;5043698;28;20208;-78
2024/01/10 04:09:37;;;;;;;29.60;9.77;;;-7.40;99.90;;;;;;5026286;28;20208;-77
2024/01/10 04:12:05;;;;;;;21.73;9.73;;;-7.40;99.90;;;;;;5036195;28;20709;-77
2024/01/10 04:14:32;;;;;;;30.60;13.63;;;-7.30;99.90;;;;;;5039651;28;20234;-77
2024/01/10 04:16:58;;;;;;;31.07;13.87;;;-7.20;99.90;;;;;;5035836;28;20214;-77
2024/01/10 04:19:25;;;;;;;24.17;10.33;;;-7.40;18.40;;;;;;5036473;28;20195;-77
2024/01/10 04:21:52;;;;;;;23.80;10.60;;;-7.40;99.90;;;;;;5033872;28;20567;-76
2024/01/10 04:24:19;;;;;;;28.67;10.93;;;-7.40;1.00;;;;;;5038480;28;20218;-77
2024/01/10 04:26:47;;;;;;;23.63;11.00;;;-7.40;99.90;;;;;;5039327;28;20290;-77
2024/01/10 04:29:14;;;;;;;26.63;11.60;;;-7.30;99.90;;;;;;5037702;28;20199;-78
2024/01/10 04:31:41;;;;;;;36.13;18.07;;;-7.30;5.00;;;;;;5028405;28;20226;-78
2024/01/10 04:34:07;;;;;;;29.47;13.17;;;-7.20;99.90;;;;;;5031000;28;20228;-77
2024/01/10 04:36:34;;;;;;;27.43;11.83;;;-7.40;1.00;;;;;;5040624;28;20200;-78
2024/01/10 04:39:01;;;;;;;28.83;15.60;;;-7.40;57.20;;;;;;5031653;28;20207;-77
2024/01/10 04:41:28;;;;;;;30.83;14.60;;;-7.40;56.50;;;;;;5035982;28;20668;-77
2024/01/10 04:43:57;;;;;;;30.63;12.13;;;-7.30;29.30;;;;;;5036853;28;20250;-77
2024/01/10 04:46:23;;;;;;;27.20;11.60;;;-7.20;1.00;;;;;;5039585;28;20642;-77
2024/01/10 04:48:50;;;;;;;30.17;11.87;;;-7.30;1.00;;;;;;5034882;28;20670;-77
2024/01/10 04:51:17;;;;;;;30.20;12.30;;;-7.40;1.00;;;;;;5034870;28;20590;-77
2024/01/10 04:53:44;;;;;;;28.57;11.47;;;-7.40;1.00;;;;;;5032887;28;20226;-77
2024/01/10 04:56:10;;;;;;;29.10;12.63;;;-7.30;1.00;;;;;;5033603;28;20196;-77
2024/01/10 04:58:37;;;;;;;28.20;11.93;;;-7.30;1.00;;;;;;5033213;28;20199;-77
2024/01/10 05:01:06;;;;;;;29.80;12.53;;;-7.30;1.00;;;;;;5042943;28;20204;-77
2024/01/10 05:03:32;;;;;;;34.93;15.73;;;-7.40;1.00;;;;;;5033269;28;20240;-77
2024/01/10 05:05:59;;;;;;;28.67;12.73;;;-7.50;1.00;;;;;;5031960;28;20674;-77
2024/01/10 05:08:27;;;;;;;34.33;14.67;;;-7.40;1.00;;;;;;5033286;28;20212;-77
2024/01/10 05:10:53;;;;;;;32.23;15.83;;;-7.50;1.00;;;;;;5041286;28;20223;-77
2024/01/10 05:13:20;;;;;;;32.93;16.03;;;-7.50;1.00;;;;;;5040683;28;20318;-77
2024/01/10 05:15:47;;;;;;;28.60;13.07;;;-7.50;1.00;;;;;;5032365;28;20208;-77
2024/01/10 05:18:17;;;;;;;32.10;15.63;;;-7.50;1.00;;;;;;5032459;28;20595;-78
2024/01/10 05:20:44;;;;;;;28.87;15.10;;;-7.60;1.00;;;;;;5033052;28;20451;-78
2024/01/10 05:23:11;;;;;;;31.40;12.87;;;-7.70;1.00;;;;;;5029865;28;20219;-78
2024/01/10 05:25:37;;;;;;;29.20;12.33;;;-7.80;1.00;;;;;;5040499;28;20647;-77
2024/01/10 05:28:05;;;;;;;30.20;12.50;;;-7.80;1.00;;;;;;5035187;28;20700;-77
2024/01/10 05:30:32;;;;;;;25.27;12.00;;;-8.10;1.00;;;;;;5032071;28;20206;-77
2024/01/10 05:32:59;;;;;;;29.43;13.13;;;-8.10;1.00;;;;;;5033452;28;20207;-77
2024/01/10 05:35:28;;;;;;;29.60;15.10;;;-8.00;1.00;;;;;;5032252;28;20206;-77
2024/01/10 05:37:55;;;;;;;30.23;15.57;;;-8.00;1.00;;;;;;5033123;28;20211;-77
2024/01/10 05:40:22;;;;;;;32.43;15.77;;;-7.80;99.90;;;;;;5030370;28;20219;-77
2024/01/10 05:42:49;;;;;;;32.37;14.93;;;-7.80;1.00;;;;;;5037394;28;20198;-77
2024/01/10 05:45:17;;;;;;;31.87;13.30;;;-7.90;1.00;;;;;;5033236;28;20558;-78
2024/01/10 05:47:44;;;;;;;35.43;14.47;;;-7.80;1.00;;;;;;5037967;28;20226;-77
2024/01/10 05:50:11;;;;;;;31.30;14.97;;;-7.80;42.60;;;;;;5033586;28;20694;-77
2024/01/10 05:52:39;;;;;;;30.43;13.73;;;-7.90;1.00;;;;;;5040548;28;20215;-77
2024/01/10 05:55:08;;;;;;;32.03;13.07;;;-7.90;1.00;;;;;;5033014;28;20788;-77
2024/01/10 05:57:35;;;;;;;33.00;12.67;;;-7.90;45.20;;;;;;5032829;28;20206;-77
2024/01/10 06:00:03;;;;;;;32.63;13.97;;;-8.00;1.00;;;;;;5034282;28;20204;-78
2024/01/10 06:02:29;;;;;;;36.23;15.10;;;-7.80;56.30;;;;;;5039464;28;20199;-78
2024/01/10 06:04:56;;;;;;;29.20;13.57;;;-7.70;41.20;;;;;;5032968;28;20229;-77
2024/01/10 06:07:23;;;;;;;30.40;13.00;;;-7.80;1.00;;;;;;5031901;28;20195;-77
2024/01/10 06:09:50;;;;;;;28.63;13.20;;;-7.90;1.00;;;;;;5031535;28;20199;-77
2024/01/10 06:12:17;;;;;;;34.13;14.80;;;-8.00;1.00;;;;;;5032232;28;20573;-77
2024/01/10 06:14:44;;;;;;;32.00;13.10;;;-7.80;99.90;;;;;;5031815;28;20704;-77
2024/01/10 06:17:11;;;;;;;32.43;13.80;;;-7.70;99.90;;;;;;5038024;28;20215;-78
2024/01/10 06:19:39;;;;;;;38.43;17.80;;;-7.80;1.00;;;;;;5030677;28;20680;-78
2024/01/10 06:22:06;;;;;;;30.37;13.27;;;-8.30;27.30;;;;;;5035357;28;20250;-77
2024/01/10 06:24:32;;;;;;;32.20;13.97;;;-7.80;99.90;;;;;;5032380;28;20234;-77
2024/01/10 06:27:01;;;;;;;29.03;13.50;;;-7.70;99.90;;;;;;5031308;28;20206;-77
2024/01/10 06:29:27;;;;;;;33.87;15.90;;;-7.60;1.00;;;;;;5031500;28;20204;-77
2024/01/10 06:31:56;;;;;;;37.63;17.03;;;-7.50;99.90;;;;;;5031833;28;20223;-77
2024/01/10 06:34:22;;;;;;;38.13;19.30;;;-7.50;1.00;;;;;;5036457;28;20845;-77
2024/01/10 06:36:49;;;;;;;38.67;18.50;;;-7.50;1.00;;;;;;5026908;28;20204;-77
2024/01/10 06:39:19;;;;;;;39.30;19.10;;;-7.40;1.00;;;;;;5027227;28;20200;-77
2024/01/10 06:41:47;;;;;;;34.67;17.80;;;-7.50;1.00;;;;;;5027741;28;20228;-77
2024/01/10 06:44:17;;;;;;;39.07;14.53;;;-7.60;1.00;;;;;;5034944;28;20262;-77
2024/01/10 06:46:44;;;;;;;36.77;14.33;;;-7.50;1.00;;;;;;5030972;28;20210;-77
2024/01/10 06:49:11;;;;;;;39.13;19.97;;;-7.60;1.00;;;;;;5032959;28;20217;-77
2024/01/10 06:51:38;;;;;;;35.00;15.93;;;-7.50;1.00;;;;;;5033256;28;20708;-77
2024/01/10 06:54:05;;;;;;;36.30;15.37;;;-7.50;1.00;;;;;;5035907;28;20230;-77
2024/01/10 06:56:32;;;;;;;42.63;20.50;;;-7.50;1.00;;;;;;5035933;28;20192;-79
2024/01/10 06:58:59;;;;;;;38.30;16.23;;;-7.40;1.00;;;;;;5040529;28;20214;-78
2024/01/10 07:01:28;;;;;;;39.20;17.00;;;-7.50;1.00;;;;;;5046141;28;20191;-79
2024/01/10 07:03:55;;;;;;;36.70;16.17;;;-7.60;1.00;;;;;;5030483;28;20232;-76
2024/01/10 07:06:22;;;;;;;40.37;16.83;;;-7.50;1.00;;;;;;5034974;28;20257;-77
2024/01/10 07:08:50;;;;;;;40.53;16.27;;;-7.50;1.00;;;;;;5035213;28;20200;-76
2024/01/10 07:11:16;;;;;;;34.87;14.67;;;-7.50;1.00;;;;;;5034580;28;20227;-76
2024/01/10 07:13:43;;;;;;;34.77;14.00;;;-7.40;1.00;;;;;;5035913;28;20219;-76
2024/01/10 07:16:11;;;;;;;31.27;13.97;;;-7.40;1.00;;;;;;5037736;28;20226;-78
2024/01/10 07:18:39;;;;;;;35.17;13.27;;;-7.40;1.00;;;;;;5048183;28;20207;-78
2024/01/10 07:21:09;;;;;;;35.13;12.90;;;-7.30;1.00;;;;;;5039464;28;20230;-78
2024/01/10 07:23:38;;;;;;;29.43;12.10;;;-7.30;99.90;;;;;;5039351;28;20219;-78
2024/01/10 07:26:05;;;;;;;25.03;13.00;;;-7.40;99.90;;;;;;5038308;28;20207;-78
2024/01/10 07:28:32;;;;;;;33.80;16.07;;;-7.30;99.90;;;;;;5034684;28;20663;-78
2024/01/10 07:30:59;;;;;;;30.03;13.17;;;-7.30;1.00;;;;;;5037262;28;20207;-76
2024/01/10 07:33:26;;;;;;;36.60;15.60;;;-7.40;1.00;;;;;;5033549;28;20231;-77
2024/01/10 07:35:55;;;;;;;33.67;14.73;;;-7.40;1.00;;;;;;5041610;28;20203;-77
2024/01/10 07:38:21;;;;;;;44.27;21.17;;;-7.40;1.00;;;;;;5041490;28;20208;-76
2024/01/10 07:40:48;;;;;;;27.97;13.00;;;-7.40;1.00;;;;;;5039457;28;20215;-76
2024/01/10 07:43:15;;;;;;;24.53;11.07;;;-7.40;1.00;;;;;;5038561;28;20224;-77
2024/01/10 07:45:42;;;;;;;34.03;16.30;;;-7.40;1.00;;;;;;5036896;28;20199;-75
2024/01/10 07:48:10;;;;;;;27.73;12.53;;;-7.30;1.00;;;;;;5039392;28;20658;-76
2024/01/10 07:50:37;;;;;;;33.93;17.07;;;-7.30;1.00;;;;;;5035773;28;20200;-75
2024/01/10 07:53:05;;;;;;;38.43;15.97;;;-7.30;1.00;;;;;;5039482;28;20235;-76
2024/01/10 07:55:32;;;;;;;32.83;15.33;;;-7.30;1.00;;;;;;5035998;28;20207;-77
2024/01/10 07:57:59;;;;;;;37.50;16.93;;;-7.30;1.00;;;;;;5037220;28;20210;-77
2024/01/10 08:00:26;;;;;;;31.67;13.17;;;-7.30;99.90;;;;;;5035770;28;20210;-77
2024/01/10 08:02:52;;;;;;;30.13;12.57;;;-7.30;99.90;;;;;;5032525;28;20196;-76
2024/01/10 08:05:21;;;;;;;42.53;15.17;;;-7.30;99.90;;;;;;5033550;28;20218;-77
2024/01/10 08:07:48;;;;;;;29.57;12.47;;;-7.30;99.90;;;;;;5040238;28;20199;-76
2024/01/10 08:10:16;;;;;;;44.40;20.07;;;-7.20;99.90;;;;;;5033214;28;20208;-76
2024/01/10 08:12:43;;;;;;;44.97;17.07;;;-7.20;99.90;;;;;;5038591;28;20223;-76
2024/01/10 08:15:11;;;;;;;47.50;22.43;;;-7.20;99.90;;;;;;5041536;28;20202;-76
2024/01/10 08:17:38;;;;;;;38.13;16.57;;;-7.10;82.90;;;;;;5037030;28;20206;-76
2024/01/10 08:20:06;;;;;;;32.07;13.73;;;-7.00;99.90;;;;;;5048056;28;20207;-76
2024/01/10 08:22:33;;;;;;;27.13;11.00;;;-6.80;1.00;;;;;;5048142;28;20210;-76
2024/01/10 08:25:00;;;;;;;18.53;7.93;;;-6.80;1.00;;;;;;5041886;28;20219;-76
2024/01/10 08:27:28;;;;;;;42.83;18.87;;;-6.50;1.00;;;;;;5042813;28;20573;-76
2024/01/10 08:29:58;;;;;;;44.63;21.67;;;-6.50;1.00;;;;;;5046452;28;20226;-76
2024/01/10 08:32:25;;;;;;;29.73;12.00;;;-6.60;1.00;;;;;;5041430;28;20216;-76
2024/01/10 08:34:51;;;;;;;48.23;23.00;;;-6.60;1.00;;;;;;5044961;28;20258;-75
2024/01/10 08:37:18;;;;;;;21.53;9.37;;;-6.40;1.00;;;;;;5041608;28;20207;-76
2024/01/10 08:39:45;;;;;;;31.27;13.83;;;-6.40;99.90;;;;;;5041216;28;20200;-76
2024/01/10 08:42:12;;;;;;;44.03;19.00;;;-6.30;99.90;;;;;;5041010;28;20209;-76
2024/01/10 08:44:40;;;;;;;13.60;5.67;;;-6.10;99.90;;;;;;5038634;28;20219;-76
2024/01/10 08:47:07;;;;;;;21.27;11.07;;;-6.10;99.90;;;;;;5034730;28;20209;-76
2024/01/10 08:49:34;;;;;;;15.00;7.43;;;-6.00;99.90;;;;;;5037816;28;20658;-76
2024/01/10 08:52:01;;;;;;;13.40;7.23;;;-6.20;99.90;;;;;;5038503;28;20697;-76
2024/01/10 08:54:27;;;;;;;13.07;6.87;;;-6.40;99.90;;;;;;5029158;28;20216;-76
2024/01/10 08:56:54;;;;;;;18.43;8.43;;;-6.10;99.90;;;;;;5033563;28;20294;-76
2024/01/10 08:59:21;;;;;;;34.00;14.07;;;-6.40;99.90;;;;;;5035190;28;20203;-76
2024/01/10 09:01:49;;;;;;;18.90;10.07;;;-6.20;99.90;;;;;;5033921;28;20202;-76
2024/01/10 09:04:16;;;;;;;39.63;18.70;;;-6.00;65.20;;;;;;5033373;28;20225;-76
2024/01/10 09:06:43;;;;;;;37.97;15.50;;;-6.40;1.00;;;;;;5031897;28;20202;-76
2024/01/10 09:09:11;;;;;;;28.73;13.70;;;-6.30;1.00;;;;;;5031866;28;20234;-76
2024/01/10 09:11:38;;;;;;;38.60;18.00;;;-6.00;1.00;;;;;;5031554;28;20200;-77
2024/01/10 09:14:05;;;;;;;22.63;10.20;;;-5.70;1.00;;;;;;5045049;28;20226;-76
2024/01/10 09:16:31;;;;;;;24.80;11.00;;;-6.10;1.00;;;;;;5041662;28;20572;-76
2024/01/10 09:18:59;;;;;;;17.53;8.77;;;-6.20;1.00;;;;;;5048989;28;20574;-77
2024/01/10 09:21:26;;;;;;;16.00;5.93;;;-6.30;1.00;;;;;;5046239;28;20221;-77
2024/01/10 09:23:53;;;;;;;35.30;15.97;;;-6.20;1.00;;;;;;5047545;28;20219;-76
2024/01/10 09:26:20;;;;;;;19.20;9.60;;;-5.90;1.00;;;;;;5043337;28;20203;-76
2024/01/10 09:28:47;;;;;;;23.37;11.90;;;-6.10;1.00;;;;;;5034577;28;20206;-77
2024/01/10 09:31:13;;;;;;;20.53;9.93;;;-5.80;1.00;;;;;;5038141;28;20203;-76
2024/01/10 09:33:40;;;;;;;14.03;7.97;;;-5.80;1.00;;;;;;5042345;28;21722;-77
2024/01/10 09:36:09;;;;;;;17.37;10.20;;;-5.70;1.00;;;;;;5043066;28;20578;-76
2024/01/10 09:38:38;;;;;;;28.07;11.97;;;-5.80;1.00;;;;;;5035341;28;20654;-77
2024/01/10 09:41:05;;;;;;;16.77;7.27;;;-5.50;1.00;;;;;;5037640;28;20290;-77
2024/01/10 09:43:33;;;;;;;31.33;11.37;;;-5.50;1.00;;;;;;5037527;28;20227;-76
2024/01/10 09:46:02;;;;;;;39.13;16.47;;;-5.40;1.00;;;;;;5037287;28;20204;-76
2024/01/10 09:48:30;;;;;;;41.67;19.20;;;-5.10;1.00;;;;;;5036834;28;20204;-77
2024/01/10 09:50:58;;;;;;;33.70;14.47;;;-5.20;1.00;;;;;;5035068;28;20974;-77
2024/01/10 09:53:27;;;;;;;35.73;16.37;;;-5.50;1.00;;;;;;5033336;28;20235;-77
2024/01/10 09:55:56;;;;;;;22.57;10.70;;;-5.50;1.00;;;;;;5033852;28;20207;-77
2024/01/10 09:58:24;;;;;;;24.17;12.40;;;-5.50;1.00;;;;;;5033573;28;20204;-77
2024/01/10 10:00:51;;;;;;;16.77;7.93;;;-5.40;1.00;;;;;;5032858;28;20200;-76
2024/01/10 10:03:19;;;;;;;33.57;13.73;;;-5.40;1.00;;;;;;5030926;28;20230;-77
2024/01/10 10:05:46;;;;;;;42.73;19.27;;;-5.40;1.00;;;;;;5032003;28;20211;-77
2024/01/10 10:08:15;;;;;;;17.87;9.13;;;-5.20;1.00;;;;;;5030394;28;20212;-77
2024/01/10 10:10:44;;;;;;;35.97;15.20;;;-5.30;1.00;;;;;;5036302;28;20252;-77
2024/01/10 10:13:24;;;;;;;24.70;11.87;;;-5.10;1.00;;;;;;5032309;28;20258;-77
2024/01/10 10:15:59;;;;;;;27.50;12.43;;;-5.30;1.00;;;;;;5036792;28;20206;-76
2024/01/10 10:18:26;;;;;;;40.00;18.07;;;-5.10;1.00;;;;;;5039010;28;20208;-76
2024/01/10 10:21:07;;;;;;;36.73;15.53;;;-5.00;1.00;;;;;;5047602;28;20210;-77
2024/01/10 10:23:34;;;;;;;40.83;19.17;;;-5.00;1.00;;;;;;5046128;28;20221;-76
2024/01/10 10:26:13;;;;;;;23.20;9.53;;;-4.50;1.00;;;;;;5045792;28;20203;-76
2024/01/10 10:28:41;;;;;;;31.03;12.37;;;-5.00;1.00;;;;;;5038512;28;20202;-77
2024/01/10 10:31:08;;;;;;;27.57;13.17;;;-4.90;1.00;;;;;;5043265;28;20213;-77
2024/01/10 10:33:35;;;;;;;35.13;15.83;;;-4.90;1.00;;;;;;5039837;28;20227;-77
2024/01/10 10:36:03;;;;;;;27.27;12.50;;;-4.90;1.00;;;;;;5035363;28;20207;-76
2024/01/10 10:38:30;;;;;;;35.23;13.63;;;-4.80;1.00;;;;;;5038083;28;20200;-77
2024/01/10 10:40:59;;;;;;;34.77;15.60;;;-4.80;1.00;;;;;;5041544;28;20203;-76
2024/01/10 10:43:28;;;;;;;36.93;16.93;;;-4.80;1.00;;;;;;5038912;28;20318;-77
2024/01/10 10:45:57;;;;;;;41.10;18.13;;;-4.80;1.00;;;;;;5039807;28;20207;-76
2024/01/10 10:48:26;;;;;;;41.97;18.67;;;-4.90;1.00;;;;;;5033836;28;20230;-77
2024/01/10 10:51:03;;;;;;;52.00;23.90;;;-4.90;1.00;;;;;;5034754;28;20658;-77
2024/01/10 10:53:31;;;;;;;23.13;11.67;;;-4.70;1.00;;;;;;5034830;28;20245;-77
2024/01/10 10:56:00;;;;;;;18.53;9.17;;;-4.70;1.00;;;;;;5035002;28;20204;-77
2024/01/10 10:58:28;;;;;;;43.00;19.33;;;-4.70;1.00;;;;;;5033301;28;20204;-77
2024/01/10 11:00:56;;;;;;;29.50;13.40;;;-4.70;1.00;;;;;;5031999;28;20206;-77
2024/01/10 11:03:24;;;;;;;46.87;21.17;;;-4.70;1.00;;;;;;5030759;28;20215;-76
2024/01/10 11:05:52;;;;;;;37.60;17.40;;;-4.70;1.00;;;;;;5030946;28;20200;-77
2024/01/10 11:08:23;;;;;;;29.90;14.63;;;-4.60;1.00;;;;;;5031441;28;20213;-76
2024/01/10 11:10:52;;;;;;;32.00;12.10;;;-4.60;1.00;;;;;;5030523;28;20210;-76
2024/01/10 11:13:33;;;;;;;37.17;17.50;;;-4.70;1.00;;;;;;5029979;28;20501;-76
2024/01/10 11:16:45;;;;;;;33.47;15.20;;;-4.60;1.00;;;;;;5030419;28;20208;-77
2024/01/10 11:19:55;;;;;;;39.63;18.00;;;-4.60;1.00;;;;;;5031552;28;20204;-77
2024/01/10 11:22:41;;;;;;;37.53;18.57;;;-4.60;99.90;;;;;;5031617;28;20215;-78
2024/01/10 11:25:08;;;;;;;31.03;10.60;;;-4.50;99.90;;;;;;5039625;28;20223;-75
2024/01/10 11:27:37;;;;;;;41.90;19.47;;;-4.40;1.00;;;;;;5035636;28;20212;-77
2024/01/10 11:30:06;;;;;;;33.27;15.10;;;-4.40;99.90;;;;;;5035675;28;20203;-77
2024/01/10 11:32:34;;;;;;;40.67;17.60;;;-4.40;99.90;;;;;;5040894;28;20212;-77
2024/01/10 11:35:01;;;;;;;50.57;23.83;;;-4.30;99.90;;;;;;5043200;28;20231;-77
2024/01/10 11:37:40;;;;;;;37.13;16.43;;;-4.30;99.90;;;;;;5033920;28;20674;-77
2024/01/10 11:40:09;;;;;;;41.57;17.53;;;-4.20;99.90;;;;;;5044486;28;20213;-77
2024/01/10 11:42:42;;;;;;;51.33;22.83;;;-4.30;99.90;;;;;;5038790;28;20196;-77
2024/01/10 11:45:10;;;;;;;39.03;16.50;;;-4.20;99.90;;;;;;5043565;28;20233;-77
2024/01/10 11:47:40;;;;;;;40.10;16.67;;;-4.20;99.90;;;;;;5034831;28;20688;-76
2024/01/10 11:50:09;;;;;;;43.53;18.93;;;-4.10;99.90;;;;;;5037986;28;20265;-78
2024/01/10 11:52:38;;;;;;;31.83;15.17;;;-4.20;99.90;;;;;;5036008;28;20207;-78
2024/01/10 11:55:07;;;;;;;42.97;16.93;;;-4.10;99.90;;;;;;5041324;28;20228;-77
2024/01/10 11:57:34;;;;;;;49.70;21.67;;;-4.00;99.90;;;;;;5038563;28;20662;-78
2024/01/10 12:00:01;;;;;;;51.03;20.80;;;-4.00;99.90;;;;;;5037087;28;20207;-78
2024/01/10 12:02:31;;;;;;;40.90;17.00;;;-4.00;99.90;;;;;;5036811;28;20196;-78
2024/01/10 12:04:57;;;;;;;40.87;18.70;;;-3.90;99.90;;;;;;5035544;28;20314;-77
2024/01/10 12:07:25;;;;;;;47.83;22.67;;;-3.60;99.90;;;;;;5037167;28;20214;-78
2024/01/10 12:09:52;;;;;;;39.37;15.07;;;-2.90;99.90;;;;;;5035647;28;20210;-77
2024/01/10 12:12:19;;;;;;;44.37;20.43;;;-3.40;3.60;;;;;;5034329;28;20214;-78
2024/01/10 12:14:45;;;;;;;38.70;17.70;;;-3.40;9.10;;;;;;5035630;28;20741;-78
2024/01/10 12:17:12;;;;;;;50.53;22.30;;;-3.20;1.00;;;;;;5034517;28;20219;-78
2024/01/10 12:19:44;;;;;;;37.03;15.63;;;-3.30;45.80;;;;;;5034990;28;20202;-78
2024/01/10 12:22:11;;;;;;;38.97;18.00;;;-3.40;1.00;;;;;;5040040;28;20202;-75
2024/01/10 12:24:45;;;;;;;49.60;21.80;;;-3.40;16.60;;;;;;5042332;28;20223;-77
2024/01/10 12:27:11;;;;;;;40.30;18.57;;;-3.20;16.80;;;;;;5040957;28;20203;-76
2024/01/10 12:29:39;;;;;;;35.53;15.80;;;-3.30;14.60;;;;;;5047195;28;20299;-78
2024/01/10 12:32:06;;;;;;;46.27;21.43;;;-3.20;6.60;;;;;;5042458;28;20289;-78
2024/01/10 12:34:33;;;;;;;48.97;21.77;;;-3.10;1.00;;;;;;5043916;28;20307;-77
2024/01/10 12:37:01;;;;;;;42.87;20.20;;;-3.00;1.00;;;;;;5046572;28;20688;-77
2024/01/10 12:39:31;;;;;;;49.27;20.73;;;-3.20;1.00;;;;;;5041154;28;20204;-78